Flight Track Log - Related Links

Times and Time Zones

All times are in EDT time to prevent confusion due to time zone crossing. See the FLG3733 flight status page for this flight to view local times or setup timezone preferences in your user account.

Time Position Orientation Groundspeed Altitude Reporting Facility
EDT Latitude Longitude Course Direction KTS MPH feet Rate Location/Type
Thu 02:19:46 PM 42.2028 -83.3553 176° South 164 189 1,500  Level Cleveland Center
Thu 02:21:06 PM 42.1300 -83.3481 176° South 213 245 5,200 2,621 Climbing Cleveland Center
Thu 02:21:13 PM 42.1283 -83.3467 148° Southeast 212 244 5,300 2,361 Climbing Cleveland Center
Thu 02:22:07 PM 42.0647 -83.3247 166° South 293 337 7,600 2,323 Climbing Cleveland Center
Thu 02:22:15 PM 42.0617 -83.3203 133° Southeast 253 291 7,700 2,057 Climbing Cleveland Center
Thu 02:23:17 PM 42.0694 -83.1992 85° East 304 350 10,000 1,500 Climbing Cleveland Center
Thu 02:24:19 PM 42.1175 -83.0808 61° Northeast 364 419 10,800 1,500 Climbing Cleveland Center
Thu 02:25:21 PM 42.1675 -82.9586 61° Northeast 375 432 13,100 2,081 Climbing Cleveland Center
Thu 02:26:23 PM 42.2156 -82.8367 62° Northeast 374 430 15,100 2,129 Climbing Cleveland Center
Thu 02:27:25 PM 42.2742 -82.6892 62° Northeast 374 430 17,500 1,790 Climbing Cleveland Center
Thu 02:28:27 PM 42.3228 -82.5639 62° Northeast 377 434 18,800 1,210 Climbing Cleveland Center
Thu 02:29:29 PM 42.3647 -82.4275 67° East 397 457 20,000 1,161 Climbing Cleveland Center
Thu 02:30:31 PM 42.3589 -82.2742 93° East 409 471 21,200 1,104 Climbing Cleveland Center
Thu 02:31:34 PM 42.3533 -82.1164 93° East 415 478 22,300 864 Climbing Cleveland Center
Thu 02:32:36 PM 42.3472 -81.9531 93° East 427 491 23,000 726 Climbing Cleveland Center
Thu 02:33:38 PM 42.3383 -81.7578 93° East 439 505 23,800 726 Climbing Cleveland Center
Thu 02:34:40 PM 42.3300 -81.5883 94° East 446 513 24,500 677 Climbing Cleveland Center
Thu 02:35:42 PM 42.3219 -81.4194 94° East 445 512 25,200 581 Climbing Cleveland Center
Thu 02:36:44 PM 42.3136 -81.2458 94° East 454 522 25,700 484 Climbing Cleveland Center
Thu 02:37:46 PM 42.3042 -81.0719 94° East 459 528 26,200 532 Climbing Cleveland Center
Thu 02:38:48 PM 42.2950 -80.8981 94° East 460 529 26,800 387 Climbing Cleveland Center
Thu 02:39:50 PM 42.3064 -80.7244 85° East 458 527 27,000 97 Climbing Cleveland Center
Thu 02:40:52 PM 42.3228 -80.5492 83° East 464 534 27,000  Level Cleveland Center
Thu 02:41:54 PM 42.3428 -80.3419 82° East 470 541 27,000  Level Cleveland Center
Thu 02:42:56 PM 42.3583 -80.1636 83° East 471 542 27,000  Level Cleveland Center
Thu 02:43:59 PM 42.3742 -79.9883 83° East 470 541 27,000  Level Cleveland Center
Thu 02:45:01 PM 42.3892 -79.8153 83° East 467 537 27,000  Level Cleveland Center
Thu 02:46:03 PM 42.4042 -79.6394 83° East 470 541 27,000  Level Cleveland Center
Thu 02:47:05 PM 42.4183 -79.4667 84° East 466 536 27,000  Level Cleveland Center
Thu 02:48:07 PM 42.4364 -79.2553 83° East 471 542 27,000  Level Cleveland Center
Thu 02:49:09 PM 42.4497 -79.0800 84° East 469 540 27,000  Level Cleveland Center
Thu 02:50:11 PM 42.4642 -78.9017 84° East 472 543 27,000  Level Cleveland Center
Thu 02:51:13 PM 42.4775 -78.7261 84° East 472 543 27,000  Level Cleveland Center
Thu 02:52:15 PM 42.4908 -78.5492 84° East 473 544 27,000  Level Cleveland Center
Thu 02:53:17 PM 42.5050 -78.3736 84° East 472 543 27,000  Level Cleveland Center
Thu 02:54:20 PM 42.5206 -78.1608 84° East 475 547 27,000  Level Cleveland Center
Thu 02:55:22 PM 42.5333 -77.9847 84° East 473 544 27,000  Level Cleveland Center
Thu 02:56:24 PM 42.5450 -77.8086 85° East 473 544 27,000  Level Cleveland Center
Thu 02:57:26 PM 42.5578 -77.6356 84° East 479 551 27,000  Level Cleveland Center
Thu 02:58:28 PM 42.5714 -77.4319 85° East 470 541 27,000  Level Cleveland Center
Thu 02:59:30 PM 42.5828 -77.2525 85° East 479 551 27,000  Level Cleveland Center
Thu 03:00:32 PM 42.5936 -77.0733 85° East 480 552 27,000  Level Cleveland Center
Thu 03:01:34 PM 42.6044 -76.8936 85° East 479 551 27,000  Level Cleveland Center
Thu 03:02:36 PM 42.6156 -76.7142 85° East 479 551 27,000  Level Cleveland Center
Thu 03:03:38 PM 42.6283 -76.5000 85° East 477 549 27,000  Level Cleveland Center
Thu 03:04:41 PM 42.6381 -76.3119 86° East 477 549 27,000  Level Cleveland Center
Thu 03:05:43 PM 42.6489 -76.1328 85° East 478 550 27,000 -532 Level Cleveland Center
Thu 03:06:45 PM 42.6581 -75.9525 86° East 482 555 25,900 -1,403 Descending Cleveland Center
Thu 03:07:47 PM 42.6658 -75.7667 87° East 494 568 24,100 -1,742 Descending Cleveland Center
Thu 03:08:49 PM 42.6756 -75.5889 86° East 480 552 22,300 -1,935 Descending Cleveland Center
Thu 03:09:51 PM 42.6864 -75.3864 86° East 454 522 20,100 -1,935 Descending Cleveland Center
Thu 03:10:53 PM 42.6925 -75.2200 87° East 448 516 18,300 -1,742 Descending Cleveland Center
Thu 03:11:55 PM 42.7006 -75.0589 86° East 436 502 16,500 -1,752 Descending Cleveland Center
Thu 03:13:10 PM 42.7061 -74.8667 88° East 428 493 14,300 -1,895 Descending Boston Center
Thu 03:14:08 PM 42.6764 -74.7047 104° East 403 464 12,300 -1,969 Descending Boston Center
Thu 03:14:14 PM 42.6767 -74.6908 88° East 412 474 12,200 -1,182 Descending Boston Center
Thu 03:15:14 PM 42.6503 -74.5436 104° East 403 464 11,000 -895 Descending Boston Center
Thu 03:16:08 PM 42.6261 -74.4158 104° East 380 437 10,500 -600 Descending Boston Center
Thu 03:16:14 PM 42.6253 -74.4036 95° East 387 445 10,400 -1,475 Descending Boston Center
Thu 03:17:09 PM 42.6167 -74.2961 96° East 302 348 9,000 -1,688 Descending Boston Center
Thu 03:17:18 PM 42.6161 -74.2772 92° East 318 366 8,600 -2,800 Descending Boston Center
Thu 03:18:09 PM 42.6219 -74.1872 85° East 286 329 6,200 -2,800 Descending Boston Center
Thu 03:18:18 PM 42.6244 -74.1669 80° East 295 339 5,800 -1,125 Descending Boston Center
Thu 03:19:13 PM 42.6297 -74.0764 85° East 288 331 5,000 -984 Descending Boston Center
Thu 03:19:19 PM 42.6317 -74.0592 81° East 290 334 4,800 -984 Descending Boston Center
Thu 03:20:14 PM 42.6386 -73.9717 84° East 279 321 4,000 -787 Descending Boston Center
Thu 03:20:20 PM 42.6397 -73.9556 85° East 280 322 4,000 -421 Level Boston Center
Thu 03:21:11 PM 42.6447 -73.8806 85° East 210 242 3,600 -476 Descending Boston Center
Thu 03:21:23 PM 42.6483 -73.8675 69° East 219 252 3,500 -563 Descending Boston Center
Thu 03:22:15 PM 42.6622 -73.8081 72° East 193 222 3,000 -689 Descending Boston Center
Thu 03:22:24 PM 42.6658 -73.7967 67° East 198 228 2,800 -900 Descending Boston Center
Thu 03:23:15 PM 42.6819 -73.7478 66° East 171 197 2,100 -1,000 Descending Boston Center
Thu 03:23:24 PM 42.6939 -73.7417 21° North 173 199 1,800 -590 Descending Boston Center
Thu 03:24:16 PM 42.7253 -73.7217 25° Northeast 164 189 1,500 -469 Descending Boston Center
Thu 03:24:28 PM 42.7356 -73.7203 North 163 188 1,300 -600 Descending Boston Center
Thu 03:25:16 PM 42.7492 -73.7558 298° West 129 148 900 -500 Descending Boston Center
Thu 03:25:28 PM 42.7508 -73.7628 288° West 133 153 800 -493 Descending Boston Center
Thu 03:26:29 PM 42.7489 -73.8069 267° West 106 122 300 -246 Descending Boston Center
Thu 03:27:30 PM 42.7469 -73.8108 236° Southwest 27 31 300  Level Boston Center

Login

Don't have an account? Register now (free) for customized features, flight alerts, and more!